Time;durP1;ratioP1;P1;durP2;ratioP2;P2;SDS_P1;SDS_P2;PMS_P1;PMS_P2;Temp;Humidity;BMP_temperature;BMP_pressure;BME280_temperature;BME280_humidity;BME280_pressure;Samples;Min_cycle;Max_cycle;Signal;HPM_P1;HPM_P2
2021/08/30 00:00:53;;;;;;;3.92;1.10;;;;;;;;;;4998878;28;20136;-56
2021/08/30 00:03:19;;;;;;;5.82;0.80;;;;;;;;;;4997457;28;20042;-55
2021/08/30 00:05:45;;;;;;;2.75;0.88;;;;;;;;;;4997514;28;20046;-55
2021/08/30 00:08:11;;;;;;;3.58;1.02;;;;;;;;;;4999069;28;20037;-54
2021/08/30 00:10:37;;;;;;;2.53;0.80;;;;;;;;;;4996026;28;20053;-54
2021/08/30 00:13:03;;;;;;;2.55;0.90;;;;;;;;;;4998468;28;20038;-55
2021/08/30 00:15:29;;;;;;;5.82;1.02;;;;;;;;;;4999036;28;20103;-55
2021/08/30 00:17:54;;;;;;;2.47;0.80;;;;;;;;;;4998969;28;20045;-55
2021/08/30 00:20:21;;;;;;;7.22;3.42;;;;;;;;;;4995797;28;20113;-53
2021/08/30 00:22:47;;;;;;;2.97;0.98;;;;;;;;;;4997839;28;20030;-55
2021/08/30 00:25:13;;;;;;;2.53;0.93;;;;;;;;;;4998071;28;20499;-54
2021/08/30 00:27:39;;;;;;;2.85;1.00;;;;;;;;;;4979000;28;20064;-54
2021/08/30 00:30:12;;;;;;;2.67;0.88;;;;;;;;;;4996313;28;20484;-55
2021/08/30 00:32:38;;;;;;;3.17;0.93;;;;;;;;;;4997005;28;20496;-56
2021/08/30 00:35:04;;;;;;;3.72;0.90;;;;;;;;;;4998265;28;20053;-55
2021/08/30 00:37:30;;;;;;;2.88;0.90;;;;;;;;;;4996809;28;20133;-56
2021/08/30 00:39:56;;;;;;;3.35;1.00;;;;;;;;;;4997201;28;20459;-56
2021/08/30 00:42:22;;;;;;;2.80;0.85;;;;;;;;;;4997243;28;20107;-55
2021/08/30 00:44:47;;;;;;;3.83;1.10;;;;;;;;;;4996521;28;20042;-54
2021/08/30 00:47:14;;;;;;;3.35;1.10;;;;;;;;;;4996386;28;20069;-56
2021/08/30 00:49:40;;;;;;;6.68;0.90;;;;;;;;;;4975454;28;20588;-57
2021/08/30 00:52:06;;;;;;;2.70;0.90;;;;;;;;;;4998971;28;20060;-55
2021/08/30 00:54:32;;;;;;;3.40;0.90;;;;;;;;;;4997350;28;20519;-56
2021/08/30 00:56:59;;;;;;;4.97;1.17;;;;;;;;;;4997219;28;20050;-54
2021/08/30 00:59:24;;;;;;;3.20;0.95;;;;;;;;;;4987764;28;20052;-55
2021/08/30 01:01:51;;;;;;;4.25;0.93;;;;;;;;;;5000702;28;20038;-56
2021/08/30 01:04:17;;;;;;;3.10;0.95;;;;;;;;;;5002080;28;20056;-56
2021/08/30 01:06:46;;;;;;;2.42;0.90;;;;;;;;;;5002865;28;20046;-56
2021/08/30 01:09:13;;;;;;;2.97;1.00;;;;;;;;;;5000174;28;20191;-55
2021/08/30 01:11:40;;;;;;;3.35;1.00;;;;;;;;;;5000723;28;20052;-55
2021/08/30 01:14:08;;;;;;;2.83;0.90;;;;;;;;;;5000708;28;20064;-56
2021/08/30 01:16:34;;;;;;;2.55;1.00;;;;;;;;;;4999750;28;20200;-56
2021/08/30 01:19:02;;;;;;;2.95;1.13;;;;;;;;;;5000916;28;20076;-52
2021/08/30 01:21:32;;;;;;;4.05;1.15;;;;;;;;;;5000796;28;20571;-55
2021/08/30 01:24:05;;;;;;;2.97;0.98;;;;;;;;;;5002336;28;20042;-55
2021/08/30 01:26:33;;;;;;;3.53;1.10;;;;;;;;;;5001828;28;20125;-53
2021/08/30 01:29:00;;;;;;;7.72;1.23;;;;;;;;;;5001215;28;20037;-55
2021/08/30 01:31:29;;;;;;;2.97;0.98;;;;;;;;;;5001774;28;20132;-55
2021/08/30 01:33:55;;;;;;;4.05;1.10;;;;;;;;;;5002554;28;20045;-56
2021/08/30 01:36:21;;;;;;;3.05;0.90;;;;;;;;;;4980427;28;20050;-56
2021/08/30 01:38:47;;;;;;;3.28;1.05;;;;;;;;;;5002030;28;20038;-56
2021/08/30 01:41:15;;;;;;;5.18;1.23;;;;;;;;;;5000812;28;20046;-56
2021/08/30 01:43:43;;;;;;;3.60;1.10;;;;;;;;;;5000957;28;20037;-56
2021/08/30 01:46:09;;;;;;;3.42;0.98;;;;;;;;;;5000327;28;20164;-55
2021/08/30 01:48:35;;;;;;;3.10;1.00;;;;;;;;;;4998832;28;20555;-55
2021/08/30 01:51:03;;;;;;;3.63;1.20;;;;;;;;;;4999731;28;20595;-54
2021/08/30 01:53:29;;;;;;;3.78;1.20;;;;;;;;;;4997520;28;21943;-55
2021/08/30 01:55:58;;;;;;;4.05;1.13;;;;;;;;;;4999122;28;20534;-55
2021/08/30 02:00:51;;;;;;;4.25;1.88;;;;;;;;;;4998079;28;20044;-54
2021/08/30 02:03:35;;;;;;;4.05;1.60;;;;;;;;;;4998431;28;20037;-55
2021/08/30 02:06:02;;;;;;;3.53;1.10;;;;;;;;;;4998232;28;20432;-55
2021/08/30 02:08:28;;;;;;;3.85;1.10;;;;;;;;;;4997324;28;20033;-56
2021/08/30 02:10:56;;;;;;;6.00;1.20;;;;;;;;;;4998113;28;20056;-56
2021/08/30 02:13:26;;;;;;;3.42;1.27;;;;;;;;;;4999483;28;20030;-55
2021/08/30 02:15:52;;;;;;;3.67;1.17;;;;;;;;;;4991374;28;20108;-54
2021/08/30 02:18:20;;;;;;;3.90;1.10;;;;;;;;;;4978477;28;20825;-56
2021/08/30 02:20:57;;;;;;;4.13;1.20;;;;;;;;;;4979513;28;20066;-53
2021/08/30 02:23:29;;;;;;;4.65;1.42;;;;;;;;;;4978682;28;20093;-56
2021/08/30 02:25:58;;;;;;;4.03;1.23;;;;;;;;;;4978199;28;20520;-55
2021/08/30 02:28:24;;;;;;;5.53;1.33;;;;;;;;;;4979023;28;20038;-56
2021/08/30 02:30:51;;;;;;;5.43;1.40;;;;;;;;;;4944350;28;20512;-56
2021/08/30 02:33:17;;;;;;;4.57;1.20;;;;;;;;;;4978233;28;20038;-55
2021/08/30 02:35:43;;;;;;;3.15;1.00;;;;;;;;;;4979656;28;20084;-55
2021/08/30 02:38:11;;;;;;;4.10;1.50;;;;;;;;;;4979704;28;20137;-56
2021/08/30 02:40:38;;;;;;;4.13;1.25;;;;;;;;;;4977757;28;20049;-56
2021/08/30 02:43:04;;;;;;;4.63;1.13;;;;;;;;;;4978864;28;20375;-55
2021/08/30 02:45:30;;;;;;;3.50;1.23;;;;;;;;;;4979759;28;20046;-56
2021/08/30 02:47:57;;;;;;;4.28;1.30;;;;;;;;;;4959077;28;20082;-55
2021/08/30 02:50:23;;;;;;;9.45;1.45;;;;;;;;;;4978744;28;20054;-56
2021/08/30 02:52:50;;;;;;;4.40;1.50;;;;;;;;;;4979139;28;20396;-56
2021/08/30 02:55:16;;;;;;;4.82;1.17;;;;;;;;;;4978573;28;20520;-55
2021/08/30 02:57:43;;;;;;;4.18;1.23;;;;;;;;;;4977881;28;20069;-51
2021/08/30 03:00:10;;;;;;;4.80;1.30;;;;;;;;;;4977308;28;20137;-56
2021/08/30 03:02:36;;;;;;;4.43;1.25;;;;;;;;;;4978667;28;20038;-52
2021/08/30 03:05:02;;;;;;;3.97;1.20;;;;;;;;;;4978309;28;20777;-53
2021/08/30 03:07:30;;;;;;;6.18;1.27;;;;;;;;;;4976521;28;20046;-55
2021/08/30 03:09:56;;;;;;;4.80;1.35;;;;;;;;;;4980029;28;20052;-54
2021/08/30 03:12:23;;;;;;;3.47;1.40;;;;;;;;;;4977626;28;20835;-55
2021/08/30 03:14:49;;;;;;;7.15;1.90;;;;;;;;;;4977665;28;20038;-55
2021/08/30 03:17:15;;;;;;;4.47;1.63;;;;;;;;;;4976491;28;20092;-54
2021/08/30 03:19:43;;;;;;;4.82;1.35;;;;;;;;;;4995815;28;20104;-53
2021/08/30 03:22:10;;;;;;;7.97;1.38;;;;;;;;;;4998405;28;20046;-55
2021/08/30 03:24:36;;;;;;;4.35;1.60;;;;;;;;;;4997324;28;20041;-55
2021/08/30 03:27:02;;;;;;;7.10;1.30;;;;;;;;;;5000537;28;20629;-56
2021/08/30 03:29:28;;;;;;;6.43;1.55;;;;;;;;;;4998912;28;20116;-53
2021/08/30 03:31:55;;;;;;;5.53;1.45;;;;;;;;;;5002143;28;20049;-56
2021/08/30 03:34:21;;;;;;;3.85;1.27;;;;;;;;;;4998778;28;20061;-55
2021/08/30 03:36:47;;;;;;;5.63;1.25;;;;;;;;;;5000815;28;20073;-56
2021/08/30 03:39:13;;;;;;;3.80;1.30;;;;;;;;;;4999903;28;21979;-56
2021/08/30 03:41:40;;;;;;;3.42;1.10;;;;;;;;;;4999582;28;20089;-55
2021/08/30 03:44:09;;;;;;;5.07;1.23;;;;;;;;;;5000348;28;20540;-56
2021/08/30 03:46:35;;;;;;;2.85;1.00;;;;;;;;;;4978867;28;20041;-55
2021/08/30 03:49:01;;;;;;;4.88;1.35;;;;;;;;;;4998417;28;20033;-56
2021/08/30 03:51:27;;;;;;;5.15;1.60;;;;;;;;;;4997991;28;20914;-56
2021/08/30 03:53:54;;;;;;;3.33;1.05;;;;;;;;;;4998887;28;20555;-55
2021/08/30 03:56:21;;;;;;;3.70;1.23;;;;;;;;;;4998475;28;20049;-56
2021/08/30 03:58:48;;;;;;;5.45;1.73;;;;;;;;;;4999522;28;20737;-53
2021/08/30 04:01:16;;;;;;;3.75;1.52;;;;;;;;;;5000439;28;20060;-55
2021/08/30 04:03:44;;;;;;;7.47;1.30;;;;;;;;;;4999132;28;20057;-55
2021/08/30 04:06:11;;;;;;;4.28;1.58;;;;;;;;;;4987769;28;20515;-55
2021/08/30 04:08:37;;;;;;;4.45;1.38;;;;;;;;;;4997610;28;20042;-55
2021/08/30 04:11:03;;;;;;;5.65;1.67;;;;;;;;;;4999098;28;20709;-55
2021/08/30 04:13:29;;;;;;;3.45;1.35;;;;;;;;;;4997627;28;20038;-55
2021/08/30 04:15:55;;;;;;;6.95;1.85;;;;;;;;;;4998945;28;20053;-55
2021/08/30 04:18:21;;;;;;;5.90;1.77;;;;;;;;;;4997405;28;20141;-54
2021/08/30 04:20:47;;;;;;;3.80;1.58;;;;;;;;;;4998148;28;20030;-55
2021/08/30 04:23:12;;;;;;;5.28;1.38;;;;;;;;;;4999119;28;20061;-56
2021/08/30 04:25:38;;;;;;;5.40;1.50;;;;;;;;;;4999002;28;20050;-55
2021/08/30 04:28:04;;;;;;;6.32;1.40;;;;;;;;;;5001438;28;20443;-55
2021/08/30 04:30:30;;;;;;;4.10;1.17;;;;;;;;;;4999869;28;20041;-56
2021/08/30 04:32:56;;;;;;;4.30;1.55;;;;;;;;;;4999981;28;20088;-56
2021/08/30 04:35:22;;;;;;;7.93;1.65;;;;;;;;;;4999980;28;20034;-56
2021/08/30 04:37:48;;;;;;;7.18;1.55;;;;;;;;;;4999410;28;20050;-56
2021/08/30 04:40:13;;;;;;;5.30;1.50;;;;;;;;;;4978933;28;20512;-55
2021/08/30 04:42:39;;;;;;;7.57;1.50;;;;;;;;;;4999511;28;20034;-55
2021/08/30 04:45:06;;;;;;;7.10;1.45;;;;;;;;;;5000014;28;20544;-53
2021/08/30 04:47:35;;;;;;;5.68;1.30;;;;;;;;;;4999833;28;20042;-55
2021/08/30 04:50:01;;;;;;;5.75;1.35;;;;;;;;;;5000934;28;20457;-56
2021/08/30 04:52:27;;;;;;;4.22;1.20;;;;;;;;;;5000179;28;20029;-56
2021/08/30 04:54:53;;;;;;;5.30;1.50;;;;;;;;;;5000651;28;20053;-56
2021/08/30 04:57:18;;;;;;;5.38;1.42;;;;;;;;;;4999767;28;20141;-54
2021/08/30 04:59:44;;;;;;;7.53;1.60;;;;;;;;;;5000767;28;20041;-54
2021/08/30 05:02:10;;;;;;;12.18;1.85;;;;;;;;;;5000417;28;20570;-56
2021/08/30 05:04:36;;;;;;;7.15;1.90;;;;;;;;;;4999258;28;20042;-55
2021/08/30 05:07:04;;;;;;;4.65;1.83;;;;;;;;;;5001053;28;20049;-54
2021/08/30 05:09:31;;;;;;;4.93;1.60;;;;;;;;;;4997700;28;20788;-54
2021/08/30 05:11:57;;;;;;;4.03;1.55;;;;;;;;;;5000493;28;20041;-54
2021/08/30 05:14:23;;;;;;;4.72;1.70;;;;;;;;;;4999283;28;20121;-52
2021/08/30 05:16:49;;;;;;;5.80;1.80;;;;;;;;;;5000144;28;20056;-55
2021/08/30 05:19:14;;;;;;;4.35;1.70;;;;;;;;;;4999367;28;20500;-55
2021/08/30 05:21:40;;;;;;;7.28;1.90;;;;;;;;;;4999914;28;20033;-54
2021/08/30 05:24:09;;;;;;;8.85;2.03;;;;;;;;;;5000666;28;20480;-54
2021/08/30 05:26:36;;;;;;;5.05;1.95;;;;;;;;;;5000993;28;20522;-55
2021/08/30 05:29:02;;;;;;;5.60;1.90;;;;;;;;;;4999770;28;20919;-55
2021/08/30 05:31:28;;;;;;;5.25;1.77;;;;;;;;;;4998661;28;20508;-54
2021/08/30 05:33:57;;;;;;;5.07;1.73;;;;;;;;;;4999935;28;20101;-55
2021/08/30 05:36:24;;;;;;;7.55;1.67;;;;;;;;;;5000852;28;20073;-54
2021/08/30 05:38:50;;;;;;;6.93;1.95;;;;;;;;;;4999773;28;20124;-54
2021/08/30 05:41:16;;;;;;;4.75;2.10;;;;;;;;;;5000871;28;20046;-52
2021/08/30 05:43:42;;;;;;;5.80;1.80;;;;;;;;;;5000449;28;20064;-55
2021/08/30 05:46:09;;;;;;;5.47;1.63;;;;;;;;;;5002771;28;20034;-55
2021/08/30 05:48:36;;;;;;;9.27;1.60;;;;;;;;;;5004210;28;20049;-55
2021/08/30 05:51:01;;;;;;;5.95;1.35;;;;;;;;;;5005180;28;20076;-54
2021/08/30 05:53:27;;;;;;;5.65;1.63;;;;;;;;;;5004782;28;20065;-54
2021/08/30 05:55:53;;;;;;;6.22;1.52;;;;;;;;;;5005797;28;20040;-54
2021/08/30 05:58:21;;;;;;;5.10;1.33;;;;;;;;;;5004620;28;20050;-55
2021/08/30 06:00:47;;;;;;;5.15;1.42;;;;;;;;;;5006401;28;20067;-55
2021/08/30 06:03:12;;;;;;;3.75;1.70;;;;;;;;;;5006483;28;20480;-55
2021/08/30 06:05:38;;;;;;;5.88;1.65;;;;;;;;;;5004593;28;20138;-55
2021/08/30 06:08:04;;;;;;;3.80;1.58;;;;;;;;;;5003332;28;20139;-55
2021/08/30 06:10:30;;;;;;;7.00;1.60;;;;;;;;;;5003841;28;20061;-55
2021/08/30 06:12:56;;;;;;;5.30;1.50;;;;;;;;;;5002866;28;20096;-52
2021/08/30 06:15:22;;;;;;;9.57;1.65;;;;;;;;;;5002809;28;20082;-54
2021/08/30 06:17:48;;;;;;;5.70;1.60;;;;;;;;;;5002190;28;20053;-54
2021/08/30 06:20:14;;;;;;;7.57;2.22;;;;;;;;;;5002362;28;20044;-54
2021/08/30 06:22:40;;;;;;;10.07;1.67;;;;;;;;;;5001771;28;20111;-53
2021/08/30 06:25:06;;;;;;;6.00;1.65;;;;;;;;;;5002465;28;20046;-54
2021/08/30 06:27:32;;;;;;;4.68;1.70;;;;;;;;;;4980383;28;20527;-54
2021/08/30 06:29:58;;;;;;;7.45;2.03;;;;;;;;;;4999922;28;20140;-55
2021/08/30 06:32:23;;;;;;;6.78;2.17;;;;;;;;;;5002228;28;20038;-55
2021/08/30 06:34:49;;;;;;;4.53;1.52;;;;;;;;;;5003822;28;20049;-55
2021/08/30 06:37:15;;;;;;;7.20;1.60;;;;;;;;;;5002581;28;20050;-56
2021/08/30 06:39:41;;;;;;;5.22;1.90;;;;;;;;;;5000662;28;20478;-55
2021/08/30 06:42:07;;;;;;;6.82;1.88;;;;;;;;;;5002228;28;20072;-55
2021/08/30 06:44:33;;;;;;;5.78;1.90;;;;;;;;;;5001290;28;20035;-53
2021/08/30 06:46:58;;;;;;;4.20;1.58;;;;;;;;;;5002336;28;20119;-55
2021/08/30 06:49:24;;;;;;;4.57;1.77;;;;;;;;;;5000912;28;20026;-55
2021/08/30 06:51:50;;;;;;;4.15;1.20;;;;;;;;;;5002632;28;20046;-55
2021/08/30 06:54:16;;;;;;;4.63;1.50;;;;;;;;;;5003203;28;20832;-55
2021/08/30 06:56:42;;;;;;;7.50;1.65;;;;;;;;;;5000940;28;20427;-55
2021/08/30 06:59:07;;;;;;;6.93;2.08;;;;;;;;;;5000905;28;20030;-55
2021/08/30 07:01:33;;;;;;;6.50;1.70;;;;;;;;;;5000484;28;20038;-55
2021/08/30 07:04:00;;;;;;;5.90;1.77;;;;;;;;;;5001370;28;20037;-55
2021/08/30 07:06:27;;;;;;;4.97;1.73;;;;;;;;;;5001272;28;20540;-56
2021/08/30 07:08:52;;;;;;;6.47;1.63;;;;;;;;;;5001766;28;20042;-55
2021/08/30 07:11:18;;;;;;;4.88;1.65;;;;;;;;;;5000268;28;20042;-55
2021/08/30 07:13:44;;;;;;;5.60;2.00;;;;;;;;;;5001228;28;20050;-55
2021/08/30 07:16:10;;;;;;;5.10;1.63;;;;;;;;;;5001478;28;20046;-53
2021/08/30 07:18:36;;;;;;;8.10;2.00;;;;;;;;;;5000253;28;20072;-55
2021/08/30 07:21:02;;;;;;;3.00;1.30;;;;;;;;;;5000839;28;20132;-54
2021/08/30 07:23:30;;;;;;;5.85;1.48;;;;;;;;;;4999754;28;20056;-56
2021/08/30 07:25:56;;;;;;;3.88;1.55;;;;;;;;;;4999519;28;20100;-56
2021/08/30 07:28:22;;;;;;;4.93;1.42;;;;;;;;;;4998760;28;20630;-55
2021/08/30 07:30:48;;;;;;;6.03;2.03;;;;;;;;;;5001205;28;20052;-55
2021/08/30 07:33:15;;;;;;;3.85;1.70;;;;;;;;;;5000174;28;20072;-54
2021/08/30 07:35:40;;;;;;;5.43;1.98;;;;;;;;;;5001493;28;20038;-55
2021/08/30 07:38:06;;;;;;;4.93;1.83;;;;;;;;;;5000927;28;20049;-56
2021/08/30 07:40:32;;;;;;;5.28;2.10;;;;;;;;;;5000629;28;20121;-55
2021/08/30 07:42:58;;;;;;;6.03;2.15;;;;;;;;;;5002026;28;20061;-55
2021/08/30 07:45:23;;;;;;;7.55;1.98;;;;;;;;;;4999516;28;20120;-55
2021/08/30 07:47:49;;;;;;;4.43;1.77;;;;;;;;;;4977441;28;20034;-55
2021/08/30 07:50:15;;;;;;;4.32;1.58;;;;;;;;;;5002038;28;20518;-55
2021/08/30 07:52:41;;;;;;;3.90;1.60;;;;;;;;;;5000146;28;20437;-56
2021/08/30 07:55:08;;;;;;;3.88;1.30;;;;;;;;;;5001441;28;20090;-55
2021/08/30 07:57:34;;;;;;;4.53;1.75;;;;;;;;;;5000220;28;20062;-55
2021/08/30 08:00:00;;;;;;;5.00;1.60;;;;;;;;;;5000769;28;20041;-56
2021/08/30 08:02:25;;;;;;;8.32;1.88;;;;;;;;;;5000321;28;20064;-55
2021/08/30 08:04:51;;;;;;;3.50;1.40;;;;;;;;;;5000513;28;20044;-56
2021/08/30 08:07:17;;;;;;;5.05;1.52;;;;;;;;;;4999949;28;20038;-56
2021/08/30 08:09:43;;;;;;;3.88;1.50;;;;;;;;;;5000836;28;20034;-56
2021/08/30 08:12:09;;;;;;;5.28;1.40;;;;;;;;;;5001842;28;20105;-54
2021/08/30 08:14:35;;;;;;;3.95;1.50;;;;;;;;;;5002028;28;20129;-56
2021/08/30 08:17:00;;;;;;;4.45;1.58;;;;;;;;;;5000972;28;20057;-55
2021/08/30 08:19:26;;;;;;;2.90;1.20;;;;;;;;;;5001405;28;20124;-55
2021/08/30 08:21:54;;;;;;;3.65;1.45;;;;;;;;;;4999748;28;20045;-55
2021/08/30 08:24:23;;;;;;;4.65;1.60;;;;;;;;;;4999724;28;20034;-54
2021/08/30 08:26:49;;;;;;;5.30;1.70;;;;;;;;;;4999922;28;20137;-56
2021/08/30 08:29:15;;;;;;;3.83;1.52;;;;;;;;;;4999684;28;20057;-55
2021/08/30 08:31:40;;;;;;;3.53;1.30;;;;;;;;;;4999513;28;20378;-55
2021/08/30 08:34:06;;;;;;;4.20;1.58;;;;;;;;;;5000110;28;20112;-54
2021/08/30 08:36:32;;;;;;;6.32;1.55;;;;;;;;;;5000204;28;20057;-55
2021/08/30 08:38:58;;;;;;;4.57;1.50;;;;;;;;;;5001195;28;20043;-55
2021/08/30 08:41:24;;;;;;;5.22;1.60;;;;;;;;;;5000134;28;20045;-54
2021/08/30 08:43:56;;;;;;;4.07;1.80;;;;;;;;;;5000084;28;20095;-55
2021/08/30 08:46:22;;;;;;;3.30;1.30;;;;;;;;;;4998565;28;20049;-55
2021/08/30 08:48:48;;;;;;;3.85;1.45;;;;;;;;;;4999349;28;20091;-54
2021/08/30 08:51:15;;;;;;;4.68;1.42;;;;;;;;;;4998370;28;20038;-54
2021/08/30 08:53:43;;;;;;;5.03;1.48;;;;;;;;;;4998374;28;20077;-55
2021/08/30 08:56:12;;;;;;;3.88;1.35;;;;;;;;;;4998631;28;20033;-51
2021/08/30 08:58:38;;;;;;;4.93;1.60;;;;;;;;;;4998115;28;20164;-55
2021/08/30 09:01:10;;;;;;;4.45;1.65;;;;;;;;;;5001086;28;20040;-55
2021/08/30 09:03:42;;;;;;;4.18;1.70;;;;;;;;;;4998795;28;20050;-51
2021/08/30 09:06:08;;;;;;;4.20;1.42;;;;;;;;;;5000956;28;20314;-54
2021/08/30 09:08:38;;;;;;;5.95;1.65;;;;;;;;;;4998228;28;20084;-55
2021/08/30 09:11:13;;;;;;;4.55;1.40;;;;;;;;;;5001281;28;20038;-54
2021/08/30 09:13:47;;;;;;;4.53;1.45;;;;;;;;;;4999435;28;20171;-55
2021/08/30 09:16:16;;;;;;;4.32;1.60;;;;;;;;;;5001357;28;20073;-54
2021/08/30 09:18:42;;;;;;;3.50;1.40;;;;;;;;;;4999971;28;20119;-55
2021/08/30 09:21:11;;;;;;;7.72;1.52;;;;;;;;;;5000860;28;20034;-55
2021/08/30 09:23:38;;;;;;;5.70;1.55;;;;;;;;;;5004004;28;20508;-54
2021/08/30 09:26:04;;;;;;;7.25;1.90;;;;;;;;;;5003877;28;20176;-54
2021/08/30 09:28:36;;;;;;;4.03;1.50;;;;;;;;;;5002102;28;20038;-55
2021/08/30 09:31:02;;;;;;;4.32;1.50;;;;;;;;;;5003618;28;20076;-54
2021/08/30 09:33:28;;;;;;;5.90;1.77;;;;;;;;;;5001641;28;20118;-54
2021/08/30 09:35:58;;;;;;;5.15;1.60;;;;;;;;;;5004211;28;20038;-53
2021/08/30 09:38:23;;;;;;;4.38;1.80;;;;;;;;;;5003056;28;20124;-53
2021/08/30 09:40:49;;;;;;;5.78;1.70;;;;;;;;;;5004029;28;20663;-53
2021/08/30 09:43:19;;;;;;;5.18;1.65;;;;;;;;;;5002737;28;20038;-54
2021/08/30 09:45:45;;;;;;;6.28;1.63;;;;;;;;;;5001764;28;20037;-54
2021/08/30 09:48:13;;;;;;;4.57;1.58;;;;;;;;;;5003531;28;20053;-55
2021/08/30 09:50:42;;;;;;;3.47;1.58;;;;;;;;;;5000810;28;20077;-54
2021/08/30 09:53:08;;;;;;;4.57;1.65;;;;;;;;;;5003648;28;20100;-55
2021/08/30 09:55:37;;;;;;;5.43;1.58;;;;;;;;;;5002146;28;20046;-53
2021/08/30 09:58:24;;;;;;;3.85;1.60;;;;;;;;;;4938188;28;20191;-54
2021/08/30 10:00:50;;;;;;;4.63;1.75;;;;;;;;;;4941563;28;20058;-54
2021/08/30 10:03:16;;;;;;;5.53;1.80;;;;;;;;;;4941545;28;20043;-54
2021/08/30 10:05:42;;;;;;;8.23;2.08;;;;;;;;;;4939481;28;20214;-51
2021/08/30 10:08:08;;;;;;;6.88;2.00;;;;;;;;;;4940526;28;20039;-53
2021/08/30 10:10:34;;;;;;;5.82;1.85;;;;;;;;;;4938923;28;20138;-53
2021/08/30 10:13:00;;;;;;;6.65;1.83;;;;;;;;;;4939961;28;20045;-53
2021/08/30 10:15:27;;;;;;;6.53;1.80;;;;;;;;;;4940138;28;20055;-54
2021/08/30 10:17:54;;;;;;;5.05;1.60;;;;;;;;;;4920946;28;20054;-55
2021/08/30 10:20:23;;;;;;;6.90;1.88;;;;;;;;;;4937107;28;20635;-52
2021/08/30 10:22:55;;;;;;;6.18;1.65;;;;;;;;;;4937378;28;20044;-53
2021/08/30 10:25:21;;;;;;;4.20;1.67;;;;;;;;;;4940400;28;20453;-54
2021/08/30 10:27:57;;;;;;;4.03;1.65;;;;;;;;;;4940693;28;20050;-55
2021/08/30 10:30:23;;;;;;;7.53;1.95;;;;;;;;;;4994934;28;20109;-55
2021/08/30 10:32:52;;;;;;;5.53;2.30;;;;;;;;;;5001704;28;20048;-52
2021/08/30 10:35:19;;;;;;;4.53;1.63;;;;;;;;;;5002845;28;20066;-55
2021/08/30 10:37:57;;;;;;;4.22;1.75;;;;;;;;;;5002250;28;20054;-55
2021/08/30 10:40:24;;;;;;;4.45;1.63;;;;;;;;;;5002862;28;20076;-55
2021/08/30 10:43:10;;;;;;;7.20;2.10;;;;;;;;;;5002060;28;20065;-55
2021/08/30 10:45:41;;;;;;;4.75;1.63;;;;;;;;;;5004493;28;20034;-53
2021/08/30 10:48:11;;;;;;;5.63;2.00;;;;;;;;;;5002518;28;20036;-54
2021/08/30 10:50:38;;;;;;;4.38;1.75;;;;;;;;;;4982220;28;20595;-53
2021/08/30 10:53:05;;;;;;;4.03;1.75;;;;;;;;;;5001720;28;20384;-54
2021/08/30 10:55:38;;;;;;;7.03;1.90;;;;;;;;;;5002684;28;20037;-51
2021/08/30 10:58:12;;;;;;;4.68;1.85;;;;;;;;;;5003501;28;20045;-54
2021/08/30 11:00:38;;;;;;;4.03;1.60;;;;;;;;;;5000637;28;20038;-54
2021/08/30 11:03:04;;;;;;;3.83;1.73;;;;;;;;;;5004345;28;20092;-55
2021/08/30 11:05:30;;;;;;;6.07;1.90;;;;;;;;;;5002265;28;20148;-54
2021/08/30 11:07:57;;;;;;;5.03;1.85;;;;;;;;;;5002483;28;20038;-55
2021/08/30 11:10:24;;;;;;;3.75;1.73;;;;;;;;;;5001019;28;20062;-55
2021/08/30 11:12:51;;;;;;;5.35;1.92;;;;;;;;;;5002719;28;22104;-54
2021/08/30 11:15:17;;;;;;;5.05;1.70;;;;;;;;;;5002130;28;20042;-54
2021/08/30 11:17:43;;;;;;;4.32;1.67;;;;;;;;;;5001630;28;20050;-54
2021/08/30 11:20:09;;;;;;;7.10;2.22;;;;;;;;;;5001525;28;20040;-55
2021/08/30 11:22:35;;;;;;;4.65;1.73;;;;;;;;;;5000634;28;20034;-55
2021/08/30 11:25:02;;;;;;;5.40;1.70;;;;;;;;;;5001079;28;20045;-54
2021/08/30 11:27:35;;;;;;;5.53;2.00;;;;;;;;;;5000353;28;20949;-53
2021/08/30 11:30:03;;;;;;;3.92;1.83;;;;;;;;;;5000680;28;20045;-55
2021/08/30 11:32:30;;;;;;;4.88;1.83;;;;;;;;;;5001139;28;20038;-55
2021/08/30 11:34:57;;;;;;;4.10;1.80;;;;;;;;;;5001439;28;20504;-53
2021/08/30 11:37:24;;;;;;;4.07;1.52;;;;;;;;;;5002887;28;20046;-56
2021/08/30 11:39:51;;;;;;;15.43;2.08;;;;;;;;;;5001067;28;20038;-54
2021/08/30 11:42:18;;;;;;;7.15;2.10;;;;;;;;;;5002655;28;20527;-52
2021/08/30 11:44:44;;;;;;;5.22;2.03;;;;;;;;;;4999501;28;20527;-54
2021/08/30 11:47:15;;;;;;;5.60;1.90;;;;;;;;;;5001616;28;20062;-55
2021/08/30 11:49:44;;;;;;;10.52;2.25;;;;;;;;;;4999712;28;20034;-55
2021/08/30 11:52:11;;;;;;;9.65;2.08;;;;;;;;;;5001279;28;20045;-55
2021/08/30 11:54:39;;;;;;;4.28;1.83;;;;;;;;;;5000664;28;20073;-53
2021/08/30 11:57:04;;;;;;;5.70;1.60;;;;;;;;;;5000929;28;20144;-53
2021/08/30 11:59:38;;;;;;;6.43;2.08;;;;;;;;;;4999819;28;20995;-54
2021/08/30 12:02:05;;;;;;;4.10;1.73;;;;;;;;;;4999546;28;20053;-55
2021/08/30 12:04:31;;;;;;;5.13;1.70;;;;;;;;;;4998337;28;20198;-56
2021/08/30 12:06:59;;;;;;;4.30;1.73;;;;;;;;;;5000552;28;20044;-53
2021/08/30 12:09:25;;;;;;;5.28;1.65;;;;;;;;;;4997805;28;20030;-54
2021/08/30 12:11:54;;;;;;;6.47;2.90;;;;;;;;;;4980718;28;20052;-56
2021/08/30 12:14:23;;;;;;;4.05;1.65;;;;;;;;;;4999063;28;20038;-53
2021/08/30 12:16:54;;;;;;;15.10;5.70;;;;;;;;;;4999811;28;20092;-52
2021/08/30 12:19:22;;;;;;;4.25;1.90;;;;;;;;;;4981037;28;20044;-54
2021/08/30 12:21:48;;;;;;;6.20;1.90;;;;;;;;;;4999374;28;20038;-53
2021/08/30 12:24:18;;;;;;;4.72;1.70;;;;;;;;;;4998770;28;20494;-56
2021/08/30 12:26:45;;;;;;;6.03;1.50;;;;;;;;;;5000043;28;20034;-53
2021/08/30 12:29:11;;;;;;;10.45;1.90;;;;;;;;;;5000586;28;20441;-52
2021/08/30 12:31:37;;;;;;;4.05;1.58;;;;;;;;;;4998954;28;20037;-56
2021/08/30 12:34:07;;;;;;;4.35;1.88;;;;;;;;;;5000014;28;20041;-56
2021/08/30 12:36:33;;;;;;;4.88;1.90;;;;;;;;;;4999625;28;20053;-50
2021/08/30 12:39:00;;;;;;;4.22;1.60;;;;;;;;;;5000022;28;20044;-53
2021/08/30 12:41:26;;;;;;;3.72;1.50;;;;;;;;;;4999758;28;20096;-53
2021/08/30 12:43:51;;;;;;;4.20;1.83;;;;;;;;;;4999121;28;20034;-54
2021/08/30 12:46:17;;;;;;;5.20;1.70;;;;;;;;;;4999517;28;20045;-53
2021/08/30 12:48:44;;;;;;;5.55;1.55;;;;;;;;;;5000341;28;20047;-55
2021/08/30 12:51:10;;;;;;;3.60;1.60;;;;;;;;;;4998343;28;20045;-54
2021/08/30 12:53:37;;;;;;;4.45;1.63;;;;;;;;;;4998516;28;20132;-55
2021/08/30 12:56:03;;;;;;;8.40;1.70;;;;;;;;;;5000623;28;20045;-54
2021/08/30 12:58:31;;;;;;;10.10;1.70;;;;;;;;;;5002582;28;20103;-55
2021/08/30 13:00:58;;;;;;;2.75;1.17;;;;;;;;;;5003116;28;20543;-53
2021/08/30 13:03:24;;;;;;;3.95;1.48;;;;;;;;;;5004111;28;20045;-53
2021/08/30 13:05:50;;;;;;;3.85;1.42;;;;;;;;;;5004404;28;20058;-54
2021/08/30 13:08:16;;;;;;;6.57;1.55;;;;;;;;;;5005245;28;20424;-53
2021/08/30 13:10:42;;;;;;;3.65;1.42;;;;;;;;;;4984355;28;20038;-54
2021/08/30 13:13:09;;;;;;;3.50;1.50;;;;;;;;;;5004051;28;20026;-53
2021/08/30 13:15:36;;;;;;;3.85;1.58;;;;;;;;;;5003143;28;20049;-52
2021/08/30 13:18:02;;;;;;;4.03;1.90;;;;;;;;;;5003012;28;20104;-54
2021/08/30 13:20:28;;;;;;;5.18;1.70;;;;;;;;;;5001492;28;20063;-52
2021/08/30 13:22:54;;;;;;;5.72;1.90;;;;;;;;;;5004143;28;20073;-53
2021/08/30 13:25:21;;;;;;;4.50;1.65;;;;;;;;;;5002305;28;20796;-51
2021/08/30 13:27:57;;;;;;;3.20;1.38;;;;;;;;;;5003641;28;20048;-55
2021/08/30 13:30:24;;;;;;;3.30;1.33;;;;;;;;;;5002380;28;20053;-52
2021/08/30 13:32:50;;;;;;;3.97;1.48;;;;;;;;;;5003741;28;20050;-52
2021/08/30 13:35:18;;;;;;;3.72;1.38;;;;;;;;;;5003664;28;20029;-54
2021/08/30 13:37:44;;;;;;;7.07;1.90;;;;;;;;;;5001736;28;20057;-55
2021/08/30 13:40:10;;;;;;;4.38;1.75;;;;;;;;;;4982788;28;20139;-55
2021/08/30 13:42:36;;;;;;;8.57;1.73;;;;;;;;;;4990007;28;20052;-55
2021/08/30 13:45:03;;;;;;;7.00;1.58;;;;;;;;;;5002171;28;20034;-53
2021/08/30 13:47:29;;;;;;;9.00;1.83;;;;;;;;;;5002015;28;20545;-54
2021/08/30 13:49:55;;;;;;;3.65;1.50;;;;;;;;;;5002983;28;20045;-54
2021/08/30 13:52:21;;;;;;;3.65;1.40;;;;;;;;;;5002589;28;20042;-52
2021/08/30 13:54:47;;;;;;;4.00;1.92;;;;;;;;;;5003669;28;20046;-54
2021/08/30 13:57:13;;;;;;;3.70;1.20;;;;;;;;;;5003642;28;20052;-54
2021/08/30 13:59:39;;;;;;;4.32;1.52;;;;;;;;;;5001160;28;20061;-54
2021/08/30 14:02:05;;;;;;;4.65;1.73;;;;;;;;;;5002477;28;20049;-54
2021/08/30 14:04:31;;;;;;;5.55;1.40;;;;;;;;;;5001650;28;20648;-54
2021/08/30 14:06:56;;;;;;;5.20;1.38;;;;;;;;;;5002116;28;20026;-54
2021/08/30 14:09:22;;;;;;;5.10;1.30;;;;;;;;;;5002461;28;20451;-54
2021/08/30 14:11:48;;;;;;;6.32;1.50;;;;;;;;;;5003279;28;20121;-52
2021/08/30 14:14:15;;;;;;;5.20;1.60;;;;;;;;;;5003152;28;20038;-54
2021/08/30 14:16:41;;;;;;;8.50;1.90;;;;;;;;;;4988649;28;20085;-53
2021/08/30 14:19:08;;;;;;;4.18;1.35;;;;;;;;;;4983112;28;20069;-54
2021/08/30 14:21:33;;;;;;;9.73;1.55;;;;;;;;;;4983120;28;20034;-53
2021/08/30 14:23:59;;;;;;;5.40;1.50;;;;;;;;;;4982859;28;20528;-51
2021/08/30 14:26:25;;;;;;;3.33;1.23;;;;;;;;;;4980896;28;20038;-54
2021/08/30 14:28:51;;;;;;;4.72;1.35;;;;;;;;;;4983173;28;20069;-53
2021/08/30 14:31:17;;;;;;;9.20;1.80;;;;;;;;;;4962504;28;20093;-54
2021/08/30 14:33:43;;;;;;;10.55;1.70;;;;;;;;;;4982458;28;20637;-52
2021/08/30 14:36:09;;;;;;;5.03;1.38;;;;;;;;;;4982868;28;20497;-54
2021/08/30 14:38:34;;;;;;;5.38;1.40;;;;;;;;;;4982692;28;20053;-53
2021/08/30 14:41:00;;;;;;;7.05;1.58;;;;;;;;;;4983012;28;20039;-54
2021/08/30 14:43:26;;;;;;;4.38;1.35;;;;;;;;;;4980330;28;20442;-53